Time;durP1;ratioP1;P1;durP2;ratioP2;P2;SDS_P1;SDS_P2;PMS_P1;PMS_P2;Temp;Humidity;BMP_temperature;BMP_pressure;BME280_temperature;BME280_humidity;BME280_pressure;Samples;Min_cycle;Max_cycle;Signal;HPM_P1;HPM_P2
2022/04/12 00:01:57;;;;;;;;;108.40;88.80;24.60;99.90;;;;;;5036289;28;8729;-69
2022/04/12 00:04:24;;;;;;;;;101.60;87.60;24.80;99.90;;;;;;5037085;28;8767;-68
2022/04/12 00:06:50;;;;;;;;;95.80;84.20;24.90;99.90;;;;;;5056777;28;8726;-69
2022/04/12 00:09:17;;;;;;;;;95.80;88.60;24.90;99.90;;;;;;5056102;28;9395;-68
2022/04/12 00:11:44;;;;;;;;;90.00;82.40;24.90;99.90;;;;;;5056194;28;8770;-68
2022/04/12 00:14:11;;;;;;;;;90.20;83.00;24.90;99.90;;;;;;5056161;28;8781;-68
2022/04/12 00:16:37;;;;;;;;;84.20;74.60;24.90;99.90;;;;;;5038083;28;8809;-69
2022/04/12 00:19:04;;;;;;;;;91.00;80.20;24.90;99.90;;;;;;5056871;28;8775;-68
2022/04/12 00:21:34;;;;;;;;;86.80;79.60;24.90;99.90;;;;;;5020735;28;8769;-68
2022/04/12 00:24:10;;;;;;;;;85.60;75.80;24.80;99.90;;;;;;5036198;28;8827;-69
2022/04/12 00:26:37;;;;;;;;;88.40;82.00;24.90;99.90;;;;;;5035929;28;8828;-69
2022/04/12 00:29:03;;;;;;;;;87.60;76.40;25.10;99.90;;;;;;5036358;28;8795;-68
2022/04/12 00:31:31;;;;;;;;;83.40;75.60;25.10;99.90;;;;;;5036039;28;8787;-68
2022/04/12 00:33:57;;;;;;;;;85.80;75.80;25.00;99.90;;;;;;5037340;28;8754;-69
2022/04/12 00:36:24;;;;;;;;;86.40;77.00;25.00;99.90;;;;;;5052786;28;8742;-69
2022/04/12 00:38:51;;;;;;;;;87.80;81.40;25.10;99.90;;;;;;5058712;28;9058;-69
2022/04/12 00:41:17;;;;;;;;;92.00;82.00;25.10;99.90;;;;;;5025583;28;8840;-67
2022/04/12 00:43:44;;;;;;;;;94.20;81.60;25.10;99.90;;;;;;5059748;28;8735;-69
2022/04/12 00:46:11;;;;;;;;;90.40;83.80;25.30;99.90;;;;;;5042505;28;8759;-69
2022/04/12 00:48:37;;;;;;;;;89.00;82.40;25.30;99.90;;;;;;5041653;28;8864;-69
2022/04/12 00:51:04;;;;;;;;;89.40;84.20;25.40;99.90;;;;;;5027653;28;8846;-69
2022/04/12 00:53:31;;;;;;;;;89.20;87.00;25.40;99.90;;;;;;5021853;28;8769;-69
2022/04/12 00:55:58;;;;;;;;;95.80;89.40;25.40;99.90;;;;;;5039070;28;8769;-69
2022/04/12 00:58:25;;;;;;;;;93.20;85.00;25.50;99.90;;;;;;5039330;28;8737;-68
2022/04/12 01:00:51;;;;;;;;;100.00;89.20;25.40;99.90;;;;;;5055113;28;8773;-69
2022/04/12 01:03:18;;;;;;;;;98.00;86.40;25.50;99.90;;;;;;5038929;28;8830;-68
2022/04/12 01:05:45;;;;;;;;;94.40;89.00;25.60;99.90;;;;;;5033221;28;8788;-69
2022/04/12 01:08:14;;;;;;;;;86.00;81.40;25.60;99.90;;;;;;5059273;28;8836;-69
2022/04/12 01:10:42;;;;;;;;;96.80;83.80;25.70;99.90;;;;;;5074473;28;9151;-69
2022/04/12 01:13:08;;;;;;;;;92.00;82.20;25.60;99.90;;;;;;5059478;28;8746;-68
2022/04/12 01:15:35;;;;;;;;;100.60;87.60;25.70;99.90;;;;;;5058289;28;8770;-68
2022/04/12 01:18:02;;;;;;;;;88.80;82.20;25.70;99.90;;;;;;5041261;28;8758;-69
2022/04/12 01:20:31;;;;;;;;;98.60;88.00;25.80;99.90;;;;;;5031678;28;8883;-68
2022/04/12 01:23:12;;;;;;;;;100.00;87.60;25.90;99.90;;;;;;5022145;28;8775;-69
2022/04/12 01:25:39;;;;;;;;;82.60;69.40;26.00;99.90;;;;;;5038614;28;8769;-69
2022/04/12 01:28:09;;;;;;;;;98.40;89.80;26.00;99.90;;;;;;5039566;28;8734;-69
2022/04/12 01:30:36;;;;;;;;;97.20;86.40;26.00;99.90;;;;;;5005064;28;8765;-69
2022/04/12 01:33:04;;;;;;;;;94.00;81.40;26.00;99.90;;;;;;5021320;28;8807;-69
2022/04/12 01:35:31;;;;;;;;;94.00;81.00;26.00;99.90;;;;;;5048171;28;8812;-68
2022/04/12 01:37:57;;;;;;;;;94.00;85.00;26.00;99.90;;;;;;5058756;28;8766;-69
2022/04/12 01:40:24;;;;;;;;;94.40;85.20;26.10;99.90;;;;;;5059420;28;8808;-69
2022/04/12 01:42:52;;;;;;;;;93.80;78.20;26.10;99.90;;;;;;5059213;28;8849;-69
2022/04/12 01:45:21;;;;;;;;;78.60;64.00;26.10;99.90;;;;;;5058151;28;8767;-68
2022/04/12 01:47:47;;;;;;;;;81.80;69.40;26.20;99.90;;;;;;5058680;28;8715;-69
2022/04/12 01:50:14;;;;;;;;;76.40;65.60;26.20;99.90;;;;;;5032883;28;8879;-69
2022/04/12 01:52:41;;;;;;;;;74.80;63.40;26.20;99.90;;;;;;5038402;28;8752;-69
2022/04/12 01:55:08;;;;;;;;;72.40;59.40;26.30;99.90;;;;;;5039045;28;8743;-69
2022/04/12 01:57:35;;;;;;;;;77.60;65.20;26.30;99.90;;;;;;5043563;28;8780;-69
2022/04/12 02:00:01;;;;;;;;;72.60;57.80;26.30;99.90;;;;;;5020484;28;8749;-69
2022/04/12 02:02:28;;;;;;;;;72.20;56.80;26.50;99.90;;;;;;5038255;28;8773;-69
2022/04/12 02:04:55;;;;;;;;;74.20;60.40;26.50;99.90;;;;;;5042664;28;8774;-69
2022/04/12 02:07:21;;;;;;;;;70.80;58.40;26.50;99.90;;;;;;5058544;28;8738;-68
2022/04/12 02:09:48;;;;;;;;;71.00;57.40;26.60;99.90;;;;;;5058065;28;8816;-69
2022/04/12 02:12:15;;;;;;;;;68.40;52.40;26.70;99.90;;;;;;5040418;28;8872;-69
2022/04/12 02:14:41;;;;;;;;;66.60;52.00;26.80;99.90;;;;;;5057999;28;8758;-69
2022/04/12 02:17:08;;;;;;;;;74.40;60.60;26.80;99.90;;;;;;5058171;28;8711;-69
2022/04/12 02:19:35;;;;;;;;;74.40;58.20;26.80;99.90;;;;;;5038238;28;8743;-69
2022/04/12 02:22:01;;;;;;;;;69.80;52.80;26.80;99.90;;;;;;5038853;28;8740;-69
2022/04/12 02:24:28;;;;;;;;;72.00;55.60;26.90;99.90;;;;;;5037721;28;8796;-69
2022/04/12 02:26:55;;;;;;;;;66.00;52.60;27.00;99.90;;;;;;5037829;28;8760;-69
2022/04/12 02:29:21;;;;;;;;;70.20;56.20;27.00;99.90;;;;;;5053106;28;8771;-69
2022/04/12 02:31:48;;;;;;;;;72.40;57.20;27.00;99.90;;;;;;5053357;28;8761;-69
2022/04/12 02:34:15;;;;;;;;;70.40;57.20;27.10;99.90;;;;;;5038323;28;8773;-69
2022/04/12 02:36:43;;;;;;;;;75.00;58.40;27.10;99.90;;;;;;5056383;28;8789;-69
2022/04/12 02:39:09;;;;;;;;;70.80;57.20;27.10;99.90;;;;;;5040251;28;8775;-68
2022/04/12 02:41:36;;;;;;;;;66.80;52.20;27.10;99.90;;;;;;5057723;28;8766;-69
2022/04/12 02:44:03;;;;;;;;;68.00;56.00;27.20;99.90;;;;;;5039677;28;8786;-69
2022/04/12 02:46:30;;;;;;;;;69.00;57.00;27.20;99.90;;;;;;5057027;28;8786;-68
2022/04/12 02:48:57;;;;;;;;;64.00;50.00;27.20;99.90;;;;;;5058268;28;8743;-69
2022/04/12 02:51:23;;;;;;;;;68.40;54.80;27.30;99.90;;;;;;5040838;28;8773;-68
2022/04/12 02:53:50;;;;;;;;;70.80;54.20;27.40;99.90;;;;;;5037512;28;9452;-69
2022/04/12 02:56:17;;;;;;;;;74.40;57.20;27.40;99.90;;;;;;5052947;28;8793;-69
2022/04/12 02:58:44;;;;;;;;;69.80;54.60;27.40;99.90;;;;;;5037744;28;8741;-68
2022/04/12 03:01:10;;;;;;;;;70.20;54.40;27.60;99.90;;;;;;5037023;28;8741;-69
2022/04/12 03:03:37;;;;;;;;;70.40;55.60;27.50;99.90;;;;;;5037326;28;8862;-69
2022/04/12 03:06:04;;;;;;;;;72.20;55.60;27.60;99.90;;;;;;5033590;28;8771;-69
2022/04/12 03:08:32;;;;;;;;;66.40;51.80;27.60;99.90;;;;;;5057078;28;8844;-69
2022/04/12 03:10:59;;;;;;;;;69.00;53.80;27.70;99.90;;;;;;5057454;28;8754;-68
2022/04/12 03:13:26;;;;;;;;;69.20;55.00;27.80;99.90;;;;;;5039571;28;8753;-68
2022/04/12 03:15:52;;;;;;;;;71.40;53.80;27.80;99.90;;;;;;5057792;28;8790;-69
2022/04/12 03:18:19;;;;;;;;;67.60;52.20;28.00;99.90;;;;;;5056913;28;8818;-68
2022/04/12 03:20:46;;;;;;;;;65.40;52.40;28.10;99.90;;;;;;5027777;28;8768;-69
2022/04/12 03:23:12;;;;;;;;;66.80;53.20;28.00;99.90;;;;;;5052586;28;8776;-68
2022/04/12 03:25:39;;;;;;;;;72.00;56.60;28.00;99.90;;;;;;5036770;28;8769;-68
2022/04/12 03:28:06;;;;;;;;;71.00;53.80;28.20;99.90;;;;;;5037617;28;8795;-68
2022/04/12 03:30:33;;;;;;;;;64.20;50.60;28.30;99.90;;;;;;5036482;28;8749;-68
2022/04/12 03:32:59;;;;;;;;;69.40;55.80;28.40;99.90;;;;;;5036733;28;8820;-68
2022/04/12 03:35:26;;;;;;;;;65.40;50.00;28.20;99.90;;;;;;5045150;28;8766;-68
2022/04/12 03:37:53;;;;;;;;;69.00;54.60;28.30;99.90;;;;;;5039259;28;8845;-68
2022/04/12 03:40:21;;;;;;;;;68.60;52.80;28.40;99.90;;;;;;5039260;28;8727;-68
2022/04/12 03:42:49;;;;;;;;;68.40;54.20;28.50;99.90;;;;;;5056661;28;9407;-68
2022/04/12 03:45:15;;;;;;;;;69.20;54.40;28.50;99.90;;;;;;5038938;28;8807;-69
2022/04/12 03:47:42;;;;;;;;;71.40;55.20;28.50;99.90;;;;;;5056475;28;8750;-69
2022/04/12 03:50:09;;;;;;;;;67.00;52.80;28.50;99.90;;;;;;5032552;28;8753;-68
2022/04/12 03:52:35;;;;;;;;;69.60;56.20;28.60;99.90;;;;;;5036171;28;9445;-68
2022/04/12 03:55:04;;;;;;;;;67.80;52.00;28.70;99.90;;;;;;5037127;28;8725;-68
2022/04/12 03:57:32;;;;;;;;;68.40;54.00;28.80;99.90;;;;;;5018947;28;9429;-68
2022/04/12 03:59:59;;;;;;;;;66.40;53.60;28.90;99.90;;;;;;5035115;28;9438;-69
2022/04/12 04:02:26;;;;;;;;;68.40;54.40;28.90;99.90;;;;;;5036112;28;8745;-69
2022/04/12 04:04:53;;;;;;;;;64.40;51.80;28.90;99.90;;;;;;5023186;28;8840;-68
2022/04/12 04:07:19;;;;;;;;;68.00;54.20;29.00;99.90;;;;;;5056747;28;8830;-67
2022/04/12 04:09:46;;;;;;;;;65.00;52.00;29.00;99.90;;;;;;5056296;28;8826;-68
2022/04/12 04:12:13;;;;;;;;;68.20;53.00;28.90;99.90;;;;;;5056439;28;8862;-69
2022/04/12 04:14:42;;;;;;;;;64.25;49.50;29.00;99.90;;;;;;5060431;28;9355;-68
2022/04/12 04:17:08;;;;;;;;;64.60;52.40;29.10;99.90;;;;;;5075570;28;9999;-68
2022/04/12 04:19:36;;;;;;;;;64.00;51.20;29.10;99.90;;;;;;5058149;28;8775;-68
2022/04/12 04:22:03;;;;;;;;;64.80;50.60;29.20;99.90;;;;;;5040813;28;8745;-68
2022/04/12 04:24:29;;;;;;;;;64.60;50.60;29.20;99.90;;;;;;5039817;28;8768;-68
2022/04/12 04:26:56;;;;;;;;;66.80;51.60;29.20;99.90;;;;;;5040006;28;9476;-68
2022/04/12 04:29:33;;;;;;;;;66.20;52.40;29.30;99.90;;;;;;5039902;28;8771;-68
2022/04/12 04:31:59;;;;;;;;;61.40;48.20;29.40;99.90;;;;;;5040216;28;8742;-68
2022/04/12 04:34:26;;;;;;;;;62.80;50.00;29.60;99.90;;;;;;5040004;28;8753;-67
2022/04/12 04:36:55;;;;;;;;;66.00;52.00;29.60;99.90;;;;;;5076013;28;9664;-68
2022/04/12 04:39:22;;;;;;;;;61.80;48.40;29.50;99.90;;;;;;5059881;28;8766;-68
2022/04/12 04:41:48;;;;;;;;;62.40;49.40;29.60;99.90;;;;;;5042281;28;8746;-68
2022/04/12 04:44:16;;;;;;;;;62.80;50.40;29.80;99.90;;;;;;5060461;28;9435;-69
2022/04/12 04:46:43;;;;;;;;;67.20;53.40;29.60;99.90;;;;;;5059883;28;8782;-68
2022/04/12 04:49:10;;;;;;;;;63.60;50.40;29.50;99.90;;;;;;5060533;28;8841;-68
2022/04/12 04:51:41;;;;;;;;;60.60;47.60;29.70;99.90;;;;;;5023806;28;8800;-68
2022/04/12 04:54:08;;;;;;;;;60.40;48.60;29.90;99.90;;;;;;5039651;28;8753;-69
2022/04/12 04:56:34;;;;;;;;;59.50;48.75;30.00;99.90;;;;;;5039053;28;8773;-68
2022/04/12 04:59:01;;;;;;;;;58.60;47.60;30.10;99.90;;;;;;5039593;28;8771;-68
2022/04/12 05:01:28;;;;;;;;;62.00;50.40;29.90;99.90;;;;;;5039054;28;8753;-68
2022/04/12 05:03:54;;;;;;;;;61.00;48.20;29.80;99.90;;;;;;5040244;28;8752;-68
2022/04/12 05:06:21;;;;;;;;;55.40;45.80;30.10;99.90;;;;;;5054815;28;8791;-68
2022/04/12 05:08:47;;;;;;;;;60.80;50.20;30.00;99.90;;;;;;5041873;28;8770;-68
2022/04/12 05:11:14;;;;;;;;;59.40;47.80;30.10;99.90;;;;;;5059442;28;8782;-68
2022/04/12 05:13:41;;;;;;;;;57.60;44.80;30.40;99.90;;;;;;5074803;28;8735;-68
2022/04/12 05:16:07;;;;;;;;;60.00;48.00;30.40;99.90;;;;;;5042090;28;8747;-68
2022/04/12 05:18:34;;;;;;;;;61.20;48.00;30.40;99.90;;;;;;5058993;28;8739;-69
2022/04/12 05:21:01;;;;;;;;;59.80;46.80;30.60;99.90;;;;;;5045575;28;8912;-68
2022/04/12 05:23:28;;;;;;;;;60.40;47.60;30.60;99.90;;;;;;5038772;28;8964;-68
2022/04/12 05:25:55;;;;;;;;;61.80;48.60;30.50;99.90;;;;;;5053211;28;8785;-68
2022/04/12 05:28:22;;;;;;;;;60.40;48.40;30.50;99.90;;;;;;5039382;28;8753;-68
2022/04/12 05:30:49;;;;;;;;;56.60;43.80;30.60;99.90;;;;;;5038844;28;8752;-68
2022/04/12 05:33:15;;;;;;;;;59.00;47.75;30.70;99.90;;;;;;5038659;28;8788;-68
2022/04/12 05:35:42;;;;;;;;;57.00;45.20;30.70;99.90;;;;;;5065072;28;8846;-68
2022/04/12 05:38:09;;;;;;;;;60.50;47.00;30.70;99.90;;;;;;5058451;28;9387;-68
2022/04/12 05:40:36;;;;;;;;;61.40;48.20;31.00;99.90;;;;;;5058344;28;8777;-68
2022/04/12 05:43:02;;;;;;;;;59.40;47.20;31.30;99.80;;;;;;5059036;28;8726;-68
2022/04/12 05:45:29;;;;;;;;;58.60;47.60;31.00;99.90;;;;;;5058189;28;8789;-68
2022/04/12 05:47:56;;;;;;;;;62.50;49.50;31.20;99.50;;;;;;5058439;28;8715;-68
2022/04/12 05:50:24;;;;;;;;;59.50;48.00;31.10;99.20;;;;;;5049693;28;8764;-68
2022/04/12 05:52:51;;;;;;;;;54.80;44.20;31.20;99.20;;;;;;5021075;28;8757;-68
2022/04/12 05:55:19;;;;;;;;;53.60;45.00;30.90;99.30;;;;;;5020993;28;8745;-67
2022/04/12 05:57:55;;;;;;;;;58.40;47.80;31.10;98.80;;;;;;5038312;28;8761;-68
2022/04/12 06:00:22;;;;;;;;;62.50;49.00;31.00;99.10;;;;;;5020166;28;8742;-67
2022/04/12 06:02:50;;;;;;;;;59.50;48.25;31.00;98.70;;;;;;5038454;28;8865;-68
2022/04/12 06:05:16;;;;;;;;;58.75;46.50;31.10;99.10;;;;;;5060412;28;8792;-69
2022/04/12 06:07:43;;;;;;;;;61.00;48.00;31.40;98.50;;;;;;5040510;28;8701;-68
2022/04/12 06:10:10;;;;;;;;;56.60;46.40;31.30;97.20;;;;;;5058819;28;8724;-69
2022/04/12 06:12:37;;;;;;;;;57.60;47.80;31.10;98.10;;;;;;5035788;28;10356;-69
2022/04/12 06:15:05;;;;;;;;;57.60;47.40;31.30;98.00;;;;;;5067317;28;8736;-68
2022/04/12 06:17:32;;;;;;;;;56.40;45.40;31.30;97.80;;;;;;5057835;28;8709;-69
2022/04/12 06:20:07;;;;;;;;;55.40;46.00;31.50;97.80;;;;;;5052979;28;8857;-68
2022/04/12 06:22:33;;;;;;;;;56.25;44.25;31.60;98.50;;;;;;5037326;28;8773;-68
2022/04/12 06:25:00;;;;;;;;;60.75;46.50;31.70;97.30;;;;;;5038773;28;8767;-68
2022/04/12 06:27:31;;;;;;;;;54.40;45.00;31.50;97.70;;;;;;5020147;28;8699;-68
2022/04/12 06:29:58;;;;;;;;;60.25;48.00;31.60;98.20;;;;;;5020270;28;9131;-68
2022/04/12 06:32:28;;;;;;;;;55.00;45.00;31.50;97.50;;;;;;5037704;28;8722;-68
2022/04/12 06:34:55;;;;;;;;;58.40;46.80;31.30;98.00;;;;;;5042228;28;8740;-68
2022/04/12 06:37:25;;;;;;;;;53.00;44.00;31.40;98.30;;;;;;5073441;28;8704;-68
2022/04/12 06:39:52;;;;;;;;;52.00;42.50;31.60;97.70;;;;;;5057623;28;8723;-68
2022/04/12 06:42:19;;;;;;;;;58.00;45.40;31.60;96.90;;;;;;5057290;28;8776;-68
2022/04/12 06:44:46;;;;;;;;;55.50;45.00;31.40;98.20;;;;;;5056244;28;8874;-68
2022/04/12 06:47:16;;;;;;;;;58.00;46.75;31.60;98.90;;;;;;5039506;28;8760;-68
2022/04/12 06:49:46;;;;;;;;;59.00;47.20;31.70;98.20;;;;;;5054659;28;8783;-68
2022/04/12 06:52:13;;;;;;;;;59.20;46.00;31.90;97.60;;;;;;5038312;28;8757;-68
2022/04/12 06:54:40;;;;;;;;;58.20;46.00;32.00;97.00;;;;;;5037145;28;8766;-69
2022/04/12 06:57:07;;;;;;;;;55.25;45.50;31.80;97.40;;;;;;5037244;28;8782;-68
2022/04/12 06:59:34;;;;;;;;;58.40;46.80;31.70;96.70;;;;;;5051957;28;8806;-68
2022/04/12 07:02:01;;;;;;;;;54.80;43.80;31.70;96.10;;;;;;5037182;28;8743;-67
2022/04/12 07:04:31;;;;;;;;;56.75;45.25;32.00;96.90;;;;;;5037945;28;9442;-68
2022/04/12 07:06:57;;;;;;;;;57.80;45.00;32.40;95.90;;;;;;5040063;28;8792;-69
2022/04/12 07:09:27;;;;;;;;;55.20;44.20;32.10;96.30;;;;;;5056835;28;8757;-68
2022/04/12 07:11:54;;;;;;;;;58.20;45.60;32.40;96.10;;;;;;5038965;28;8752;-68
2022/04/12 07:14:21;;;;;;;;;55.00;44.60;32.30;96.20;;;;;;5072017;28;9172;-68
2022/04/12 07:16:48;;;;;;;;;57.50;45.00;32.30;96.40;;;;;;5039225;28;9074;-69
2022/04/12 07:19:15;;;;;;;;;56.80;45.00;32.20;96.80;;;;;;5039590;28;8736;-69
2022/04/12 07:21:41;;;;;;;;;53.25;43.25;32.20;96.60;;;;;;5019848;28;8784;-69
2022/04/12 07:24:08;;;;;;;;;56.50;45.75;32.10;96.30;;;;;;5037011;28;8757;-69
2022/04/12 07:26:36;;;;;;;;;53.50;44.00;31.90;95.70;;;;;;5036527;28;8852;-69
2022/04/12 07:29:03;;;;;;;;;61.80;48.20;32.00;95.50;;;;;;5036924;28;8791;-69
2022/04/12 07:31:30;;;;;;;;;56.80;44.60;31.90;96.00;;;;;;5036331;28;8747;-68
2022/04/12 07:33:57;;;;;;;;;56.40;45.80;32.40;95.40;;;;;;5019625;28;8733;-69
2022/04/12 07:36:23;;;;;;;;;56.00;44.20;32.30;95.60;;;;;;5052863;28;8750;-69
2022/04/12 07:38:50;;;;;;;;;53.75;43.75;32.00;94.50;;;;;;5056939;28;8751;-69
2022/04/12 07:41:17;;;;;;;;;53.40;42.60;31.70;95.30;;;;;;5039387;28;8749;-68
2022/04/12 07:43:49;;;;;;;;;53.80;44.00;31.60;95.20;;;;;;5056661;28;8721;-69
2022/04/12 07:46:16;;;;;;;;;53.20;42.40;31.60;95.30;;;;;;5057460;28;8773;-69
2022/04/12 07:48:43;;;;;;;;;61.00;46.25;31.90;95.20;;;;;;5055873;28;8746;-69
2022/04/12 07:51:10;;;;;;;;;59.20;47.00;32.00;95.10;;;;;;5024121;28;8820;-69
2022/04/12 07:53:37;;;;;;;;;55.50;44.25;32.00;94.70;;;;;;5036820;28;8847;-69
2022/04/12 07:56:04;;;;;;;;;53.00;42.00;32.10;94.80;;;;;;5051918;28;8839;-68
2022/04/12 07:58:30;;;;;;;;;53.50;44.25;32.30;94.60;;;;;;5019049;28;8734;-68
2022/04/12 08:00:57;;;;;;;;;54.25;43.75;32.10;95.30;;;;;;5037520;28;8752;-69
2022/04/12 08:03:24;;;;;;;;;55.20;42.80;32.00;95.90;;;;;;5036829;28;9113;-69
2022/04/12 08:05:51;;;;;;;;;57.75;45.75;32.20;93.80;;;;;;5031271;28;9578;-68
2022/04/12 08:08:18;;;;;;;;;59.80;46.20;32.50;92.40;;;;;;5056834;28;8774;-66
2022/04/12 08:10:45;;;;;;;;;57.20;44.20;32.40;92.90;;;;;;5056910;28;8794;-68
2022/04/12 08:13:14;;;;;;;;;42.60;35.00;32.20;91.90;;;;;;5057655;28;8739;-69
2022/04/12 08:15:42;;;;;;;;;51.40;41.40;32.10;92.40;;;;;;5056303;28;8761;-68
2022/04/12 08:18:08;;;;;;;;;58.00;46.00;32.40;92.00;;;;;;5056363;28;8727;-69
2022/04/12 08:20:35;;;;;;;;;55.00;44.00;32.60;92.40;;;;;;5028733;28;8874;-69
2022/04/12 08:23:02;;;;;;;;;56.00;44.80;32.70;91.90;;;;;;5036725;28;8761;-69
2022/04/12 08:25:29;;;;;;;;;56.00;44.80;32.60;92.80;;;;;;5018697;28;8816;-68
2022/04/12 08:27:56;;;;;;;;;53.40;43.00;32.60;91.60;;;;;;5037225;28;8777;-69
2022/04/12 08:30:23;;;;;;;;;57.20;45.60;32.50;90.50;;;;;;5018905;28;8755;-68
2022/04/12 08:32:49;;;;;;;;;52.20;44.00;32.60;91.20;;;;;;5036356;28;8753;-68
2022/04/12 08:35:16;;;;;;;;;49.50;39.75;32.60;92.10;;;;;;5043257;28;8764;-69
2022/04/12 08:37:44;;;;;;;;;57.25;46.25;32.80;90.80;;;;;;5037955;28;8809;-68
2022/04/12 08:40:14;;;;;;;;;49.75;39.75;32.70;91.70;;;;;;5056995;28;8719;-69
2022/04/12 08:42:41;;;;;;;;;54.40;44.20;32.80;90.40;;;;;;5055903;28;8751;-69
2022/04/12 08:45:08;;;;;;;;;48.40;39.00;32.50;91.20;;;;;;5055478;28;8786;-69
2022/04/12 08:47:35;;;;;;;;;54.40;43.60;32.40;90.60;;;;;;5055802;28;8758;-69
2022/04/12 08:50:06;;;;;;;;;53.60;42.60;32.40;92.60;;;;;;5032923;28;8722;-69
2022/04/12 08:52:33;;;;;;;;;57.20;45.80;32.50;92.50;;;;;;5035469;28;8756;-69
2022/04/12 08:55:01;;;;;;;;;52.40;42.20;32.40;91.70;;;;;;5051639;28;8897;-69
2022/04/12 08:57:29;;;;;;;;;54.20;43.60;32.40;92.20;;;;;;5035280;28;9434;-69
2022/04/12 08:59:55;;;;;;;;;55.20;44.40;32.20;92.80;;;;;;5020943;28;8840;-69
2022/04/12 09:02:23;;;;;;;;;60.80;47.80;32.10;92.50;;;;;;5021719;28;8757;-68
2022/04/12 09:04:50;;;;;;;;;56.20;45.60;31.90;93.20;;;;;;5042586;28;8781;-68
2022/04/12 09:07:17;;;;;;;;;58.00;45.80;32.30;91.80;;;;;;5059736;28;8755;-68
2022/04/12 09:09:44;;;;;;;;;55.20;45.00;32.30;91.50;;;;;;5041740;28;8798;-68
2022/04/12 09:12:12;;;;;;;;;57.20;44.80;32.30;91.30;;;;;;5059814;28;8759;-69
2022/04/12 09:14:57;;;;;;;;;56.25;44.75;32.40;91.40;;;;;;5059777;28;8824;-69
2022/04/12 09:17:34;;;;;;;;;56.00;46.00;32.40;91.50;;;;;;5059126;28;8759;-69
2022/04/12 09:20:02;;;;;;;;;58.80;46.40;32.50;91.60;;;;;;5054163;28;8776;-69
2022/04/12 09:22:29;;;;;;;;;57.80;46.40;32.40;92.30;;;;;;5039075;28;8772;-69
2022/04/12 09:25:14;;;;;;;;;53.80;42.40;32.50;91.80;;;;;;5029132;28;9469;-69
2022/04/12 09:27:49;;;;;;;;;54.80;44.00;32.50;92.30;;;;;;5022197;28;8757;-69
2022/04/12 09:30:37;;;;;;;;;55.60;45.20;32.60;92.90;;;;;;5039966;28;8804;-69
2022/04/12 09:33:04;;;;;;;;;55.40;45.40;32.60;93.00;;;;;;5039303;28;8764;-69
2022/04/12 09:35:31;;;;;;;;;54.80;43.60;32.80;93.20;;;;;;5030486;28;8763;-69
2022/04/12 09:37:58;;;;;;;;;57.60;46.60;32.70;92.20;;;;;;5041178;28;8767;-68
2022/04/12 09:40:26;;;;;;;;;55.20;45.20;32.70;92.40;;;;;;5041594;28;8723;-64
2022/04/12 09:42:54;;;;;;;;;55.80;43.40;32.80;90.90;;;;;;5041558;28;8731;-69
2022/04/12 09:45:27;;;;;;;;;54.75;45.00;32.80;91.40;;;;;;5058308;28;8802;-68
2022/04/12 09:48:02;;;;;;;;;57.80;46.20;32.70;91.00;;;;;;5058452;28;8747;-69
2022/04/12 09:50:29;;;;;;;;;59.00;46.40;32.70;92.40;;;;;;5049727;28;8777;-68
2022/04/12 09:53:00;;;;;;;;;55.20;44.20;32.60;91.70;;;;;;5039020;28;8899;-69
2022/04/12 09:55:36;;;;;;;;;59.20;46.00;32.50;92.50;;;;;;5038149;28;8733;-68
2022/04/12 09:58:04;;;;;;;;;57.80;44.60;32.40;93.20;;;;;;5038922;28;8749;-69
2022/04/12 10:00:33;;;;;;;;;56.80;46.00;32.30;94.20;;;;;;5037837;28;8777;-69
2022/04/12 10:03:04;;;;;;;;;56.00;45.80;32.40;93.10;;;;;;5054093;28;8781;-69
2022/04/12 10:05:31;;;;;;;;;54.25;45.00;32.30;93.70;;;;;;5030376;28;8802;-69
2022/04/12 10:08:01;;;;;;;;;57.60;46.60;32.20;94.20;;;;;;5074219;28;8777;-69
2022/04/12 10:10:28;;;;;;;;;55.40;45.20;32.20;94.40;;;;;;5041017;28;8758;-68
2022/04/12 10:12:55;;;;;;;;;55.50;43.25;32.20;94.50;;;;;;5059581;28;8734;-69
2022/04/12 10:15:22;;;;;;;;;53.75;44.25;32.20;95.50;;;;;;5024361;28;8887;-68
2022/04/12 10:17:49;;;;;;;;;58.20;45.80;32.10;93.80;;;;;;5058226;28;8848;-69
2022/04/12 10:20:18;;;;;;;;;56.75;45.25;31.90;94.90;;;;;;5050931;28;8943;-69
2022/04/12 10:22:47;;;;;;;;;57.50;44.50;31.70;95.50;;;;;;5020851;28;8805;-69
2022/04/12 10:25:21;;;;;;;;;58.25;45.75;31.70;94.90;;;;;;5038299;28;8777;-69
2022/04/12 10:27:48;;;;;;;;;59.80;47.00;31.60;94.50;;;;;;5020893;28;8872;-69
2022/04/12 10:30:18;;;;;;;;;60.60;47.80;31.70;95.00;;;;;;5020352;28;8816;-69
2022/04/12 10:33:03;;;;;;;;;62.40;49.40;31.60;96.20;;;;;;5037759;28;8855;-68
2022/04/12 10:35:56;;;;;;;;;62.00;48.40;31.60;96.10;;;;;;5046180;28;9451;-69
2022/04/12 10:38:27;;;;;;;;;61.60;48.80;31.60;95.80;;;;;;5057167;28;8758;-68
2022/04/12 10:40:54;;;;;;;;;61.00;47.60;31.70;97.10;;;;;;5039803;28;8861;-69
2022/04/12 10:43:33;;;;;;;;;53.40;45.00;31.80;95.90;;;;;;5057706;28;8727;-69
2022/04/12 10:46:05;;;;;;;;;66.00;53.20;31.90;95.50;;;;;;5058129;28;8791;-69
2022/04/12 10:48:33;;;;;;;;;58.00;47.40;32.00;95.40;;;;;;5039903;28;9439;-69
2022/04/12 10:51:01;;;;;;;;;61.20;47.60;32.00;95.60;;;;;;5026866;28;8831;-69
2022/04/12 10:53:39;;;;;;;;;60.00;47.00;32.00;95.20;;;;;;5037101;28;8858;-68
2022/04/12 10:56:16;;;;;;;;;58.50;46.75;32.00;95.30;;;;;;5037311;28;8847;-69
2022/04/12 10:58:44;;;;;;;;;54.75;45.75;32.00;95.20;;;;;;5037172;28;8750;-69
2022/04/12 11:01:12;;;;;;;;;59.00;47.00;32.00;95.40;;;;;;5037817;28;8745;-69
2022/04/12 11:03:42;;;;;;;;;58.00;46.25;31.90;95.00;;;;;;5019644;28;8769;-68
2022/04/12 11:06:12;;;;;;;;;56.80;47.80;31.90;94.90;;;;;;5051074;28;8952;-69
2022/04/12 11:08:39;;;;;;;;;60.20;47.80;31.90;94.70;;;;;;5072392;28;8775;-69
2022/04/12 11:11:06;;;;;;;;;58.60;45.80;31.90;94.70;;;;;;5071858;28;8755;-69
2022/04/12 11:13:34;;;;;;;;;60.00;45.60;31.80;94.70;;;;;;5056708;28;8735;-69
2022/04/12 11:16:21;;;;;;;;;53.50;44.00;31.80;94.50;;;;;;5057828;28;8743;-69
2022/04/12 11:18:54;;;;;;;;;60.80;46.00;31.60;95.30;;;;;;5039150;28;9424;-69
2022/04/12 11:21:25;;;;;;;;;61.60;47.40;31.50;97.60;;;;;;5046173;28;8882;-68
2022/04/12 11:23:54;;;;;;;;;64.20;50.00;31.40;97.40;;;;;;5036866;28;8757;-69
2022/04/12 11:26:35;;;;;;;;;63.80;49.20;31.40;97.90;;;;;;5018790;28;8773;-69
2022/04/12 11:29:01;;;;;;;;;58.60;47.00;31.30;98.10;;;;;;5036900;28;8753;-69
2022/04/12 11:31:28;;;;;;;;;64.00;49.40;31.30;98.40;;;;;;5018974;28;8812;-69
2022/04/12 11:33:55;;;;;;;;;61.40;48.80;31.30;97.90;;;;;;5020034;28;8852;-69
2022/04/12 11:36:21;;;;;;;;;62.20;47.60;31.20;96.20;;;;;;5052384;28;8771;-68
2022/04/12 11:38:48;;;;;;;;;61.80;49.00;31.20;98.60;;;;;;5039185;28;8759;-69
2022/04/12 11:41:18;;;;;;;;;62.00;47.20;31.20;97.80;;;;;;5038591;28;8781;-69
2022/04/12 11:43:44;;;;;;;;;60.80;48.40;31.20;99.90;;;;;;5056829;28;8803;-68
2022/04/12 11:46:16;;;;;;;;;64.60;50.00;31.00;99.90;;;;;;5039275;28;9431;-69
2022/04/12 11:48:43;;;;;;;;;62.00;49.40;31.00;98.40;;;;;;5045088;28;9522;-69
2022/04/12 11:51:10;;;;;;;;;60.25;49.25;31.10;97.10;;;;;;5042305;28;8773;-69
2022/04/12 11:53:47;;;;;;;;;64.60;51.00;31.10;98.70;;;;;;5018625;28;8785;-69
2022/04/12 11:56:14;;;;;;;;;68.20;52.80;30.90;98.80;;;;;;5002670;28;8771;-69
2022/04/12 11:58:41;;;;;;;;;65.20;53.00;30.90;99.90;;;;;;5036315;28;8741;-69
2022/04/12 12:01:08;;;;;;;;;64.20;49.20;30.80;99.70;;;;;;5037013;28;8827;-69
2022/04/12 12:03:38;;;;;;;;;61.60;49.00;30.80;98.80;;;;;;5018824;28;8753;-69
2022/04/12 12:06:04;;;;;;;;;68.00;50.80;30.90;97.20;;;;;;5050143;28;8786;-69
2022/04/12 12:08:32;;;;;;;;;64.40;49.60;30.80;98.50;;;;;;5038132;28;9510;-68
2022/04/12 12:11:08;;;;;;;;;62.20;48.80;30.70;99.90;;;;;;5056349;28;8801;-68
2022/04/12 12:13:35;;;;;;;;;66.20;53.40;30.60;99.20;;;;;;5040126;28;8747;-69
2022/04/12 12:16:02;;;;;;;;;64.80;50.60;30.50;97.70;;;;;;5072596;28;8773;-69
2022/04/12 12:18:28;;;;;;;;;67.00;50.60;30.60;98.10;;;;;;5038746;28;9203;-68
2022/04/12 12:20:56;;;;;;;;;64.40;50.60;30.60;97.50;;;;;;5037086;28;8933;-69
2022/04/12 12:23:22;;;;;;;;;67.00;51.20;30.60;97.20;;;;;;5022517;28;8772;-69
2022/04/12 12:25:51;;;;;;;;;65.80;52.20;30.60;97.50;;;;;;5002169;28;8781;-69
2022/04/12 12:28:27;;;;;;;;;66.80;52.20;30.40;99.90;;;;;;5036770;28;8744;-68
2022/04/12 12:31:03;;;;;;;;;67.20;54.40;30.50;98.00;;;;;;5036336;28;8810;-69
2022/04/12 12:33:44;;;;;;;;;68.20;53.80;30.50;97.90;;;;;;5019256;28;8767;-69
2022/04/12 12:36:17;;;;;;;;;67.20;51.40;30.50;98.80;;;;;;5054239;28;8782;-69
2022/04/12 12:38:45;;;;;;;;;55.25;42.25;30.40;98.80;;;;;;5060244;28;8739;-69
2022/04/12 12:41:11;;;;;;;;;63.00;48.80;30.40;97.10;;;;;;5025807;28;8762;-69